Time;durP1;ratioP1;P1;durP2;ratioP2;P2;SDS_P1;SDS_P2;PMS_P1;PMS_P2;Temp;Humidity;BMP_temperature;BMP_pressure;BME280_temperature;BME280_humidity;BME280_pressure;Samples;Min_cycle;Max_cycle;Signal;HPM_P1;HPM_P2
2022/05/10 00:00:30;;;;;;;44.97;23.75;;;;;;;15.36;100.00;101692.31;4988932;28;20113;-78
2022/05/10 00:02:59;;;;;;;47.28;25.90;;;;;;;15.29;100.00;101671.78;4971105;28;20077;-79
2022/05/10 00:05:32;;;;;;;60.20;30.23;;;;;;;15.29;100.00;101664.38;5011264;28;20053;-79
2022/05/10 00:07:59;;;;;;;71.28;33.08;;;;;;;15.21;100.00;101687.09;4979439;28;20540;-78
2022/05/10 00:10:25;;;;;;;66.60;31.52;;;;;;;15.26;100.00;101683.94;4993748;28;20030;-78
2022/05/10 00:12:52;;;;;;;62.55;30.05;;;;;;;15.28;100.00;101670.00;4991476;28;20045;-80
2022/05/10 00:15:18;;;;;;;43.13;24.77;;;;;;;15.32;100.00;101688.06;4992848;28;20405;-79
2022/05/10 00:17:44;;;;;;;44.95;23.42;;;;;;;15.27;100.00;101680.19;4996712;28;20042;-79
2022/05/10 00:20:14;;;;;;;45.58;25.23;;;;;;;15.24;100.00;101678.56;4979320;28;20039;-80
2022/05/10 00:22:40;;;;;;;49.03;24.40;;;;;;;15.29;100.00;101696.63;4996804;28;20050;-78
2022/05/10 00:25:08;;;;;;;39.15;22.55;;;;;;;15.33;100.00;101678.78;4950230;28;20045;-78
2022/05/10 00:27:34;;;;;;;41.22;22.55;;;;;;;15.25;100.00;101682.22;4977036;28;20035;-79
2022/05/10 00:30:00;;;;;;;36.88;22.33;;;;;;;15.18;100.00;101678.22;4980321;28;20061;-78
2022/05/10 00:32:31;;;;;;;37.80;22.48;;;;;;;15.17;100.00;101682.84;4981781;28;20065;-79
2022/05/10 00:34:57;;;;;;;35.30;22.23;;;;;;;15.08;100.00;101683.63;5011385;28;20506;-79
2022/05/10 00:37:24;;;;;;;36.08;22.88;;;;;;;15.07;100.00;101679.13;4955886;28;20065;-80
2022/05/10 00:39:49;;;;;;;37.08;21.75;;;;;;;15.11;100.00;101669.59;4998362;28;20430;-78
2022/05/10 00:42:22;;;;;;;36.30;22.98;;;;;;;15.14;100.00;101669.31;4975492;28;20034;-79
2022/05/10 00:44:55;;;;;;;36.80;22.42;;;;;;;15.06;100.00;101663.59;5009319;28;20096;-78
2022/05/10 00:47:28;;;;;;;;;;;;;;;15.13;100.00;101659.28;4999817;28;20129;-78
2022/05/10 00:50:12;;;;;;;41.78;21.05;;;;;;;15.10;100.00;101656.78;4998689;28;19918;-78
2022/05/10 00:52:55;;;;;;;38.17;21.80;;;;;;;15.02;100.00;101654.72;4997470;28;20420;-78
2022/05/10 00:55:30;;;;;;;34.85;22.10;;;;;;;14.91;100.00;101659.38;4992167;28;20102;-78
2022/05/10 00:58:21;;;;;;;33.35;22.45;;;;;;;14.82;100.00;101658.25;4979051;28;20403;-78
2022/05/10 01:00:47;;;;;;;37.25;22.60;;;;;;;14.64;100.00;101655.16;4961354;28;20070;-78
2022/05/10 01:03:37;;;;;;;39.58;22.80;;;;;;;14.65;100.00;101662.44;5011783;28;20073;-77
2022/05/10 01:06:09;;;;;;;38.40;22.48;;;;;;;14.57;100.00;101652.03;4978830;28;20026;-78
2022/05/10 01:09:01;;;;;;;34.50;22.38;;;;;;;14.61;100.00;101648.06;5014631;28;20070;-77
2022/05/10 01:11:51;;;;;;;34.25;22.33;;;;;;;14.59;100.00;101643.63;4992548;28;20052;-78
2022/05/10 01:14:31;;;;;;;39.25;22.98;;;;;;;14.62;100.00;101637.91;4996400;28;20425;-79
2022/05/10 01:16:57;;;;;;;41.42;24.25;;;;;;;14.56;100.00;101643.88;4981305;28;20036;-79
2022/05/10 01:19:23;;;;;;;37.20;22.30;;;;;;;14.55;100.00;101634.75;4979868;28;20034;-79
2022/05/10 01:22:08;;;;;;;34.63;22.60;;;;;;;14.51;100.00;101636.88;4979083;28;20051;-78
2022/05/10 01:24:43;;;;;;;36.10;22.23;;;;;;;14.46;100.00;101643.78;4987716;28;20043;-79
2022/05/10 01:27:33;;;;;;;33.35;22.25;;;;;;;14.43;100.00;101642.16;5006539;28;20039;-78
2022/05/10 01:30:28;;;;;;;40.78;21.50;;;;;;;14.42;100.00;101637.63;4994335;28;20042;-77
2022/05/10 01:35:52;;;;;;;37.35;22.13;;;;;;;14.15;100.00;101616.88;4989057;28;20173;-78
2022/05/10 01:38:39;;;;;;;33.65;22.52;;;;;;;14.30;100.00;101625.75;4993732;28;20038;-77
2022/05/10 01:41:47;;;;;;;38.28;22.75;;;;;;;14.23;100.00;101626.38;4997079;28;20512;-78
2022/05/10 01:44:27;;;;;;;35.55;22.10;;;;;;;14.26;100.00;101618.75;4994458;28;20402;-78
2022/05/10 01:46:59;;;;;;;35.47;21.63;;;;;;;14.28;100.00;101619.50;4997546;28;20034;-78
2022/05/10 01:49:47;;;;;;;33.13;22.25;;;;;;;14.23;100.00;101616.28;4995445;28;20030;-78
2022/05/10 01:52:25;;;;;;;33.15;21.92;;;;;;;14.08;100.00;101612.88;4957695;28;20053;-77
2022/05/10 01:54:56;;;;;;;33.55;21.13;;;;;;;14.06;100.00;101614.88;5008809;28;20026;-78
2022/05/10 01:57:22;;;;;;;31.75;22.98;;;;;;;14.11;100.00;101617.25;4999027;28;20038;-78
2022/05/10 01:59:53;;;;;;;40.88;22.33;;;;;;;14.10;100.00;101613.66;4983590;28;20513;-79
2022/05/10 02:02:23;;;;;;;36.05;21.52;;;;;;;14.07;100.00;101610.25;5014425;28;20545;-78
2022/05/10 02:04:55;;;;;;;42.63;22.20;;;;;;;14.05;100.00;101609.50;4998014;28;20036;-79
2022/05/10 02:07:24;;;;;;;38.30;21.93;;;;;;;14.03;100.00;101606.88;5013403;28;20054;-77
2022/05/10 02:09:59;;;;;;;29.65;20.73;;;;;;;13.90;100.00;101601.47;4995919;28;20297;-77
2022/05/10 02:12:44;;;;;;;35.17;21.27;;;;;;;13.91;100.00;101606.00;4996790;28;20034;-78
2022/05/10 02:15:32;;;;;;;33.25;21.33;;;;;;;13.92;100.00;101598.59;4993905;28;20496;-78
2022/05/10 02:18:14;;;;;;;34.03;21.17;;;;;;;13.88;100.00;101595.22;4982731;28;20045;-78
2022/05/10 02:20:50;;;;;;;32.97;20.48;;;;;;;13.89;100.00;101594.25;4981204;28;20042;-78
2022/05/10 02:23:39;;;;;;;33.63;21.38;;;;;;;13.78;100.00;101586.84;4992145;28;20073;-78
2022/05/10 02:26:09;;;;;;;31.50;20.90;;;;;;;13.79;100.00;101591.34;4983607;28;20034;-77
2022/05/10 02:28:47;;;;;;;33.22;20.83;;;;;;;13.83;100.00;101583.72;4996977;28;20041;-78
2022/05/10 02:31:22;;;;;;;39.78;22.25;;;;;;;13.79;100.00;101577.59;4994660;28;20030;-78
2022/05/10 02:33:50;;;;;;;27.67;20.13;;;;;;;13.65;100.00;101587.97;4995555;28;20062;-78
2022/05/10 02:36:16;;;;;;;32.45;22.20;;;;;;;13.75;100.00;101581.59;4996985;28;20041;-77
2022/05/10 02:38:43;;;;;;;31.92;21.15;;;;;;;13.65;100.00;101585.22;4978154;28;20026;-78
2022/05/10 02:41:20;;;;;;;33.97;21.70;;;;;;;13.58;100.00;101579.34;4959404;28;20034;-78
2022/05/10 02:43:56;;;;;;;29.88;20.85;;;;;;;13.57;100.00;101581.19;4987732;28;20054;-79
2022/05/10 02:46:22;;;;;;;39.47;21.65;;;;;;;13.63;100.00;101584.47;4995487;28;20447;-78
2022/05/10 02:48:49;;;;;;;32.30;22.20;;;;;;;13.55;100.00;101579.59;4982305;28;20153;-78
2022/05/10 02:51:15;;;;;;;33.35;22.75;;;;;;;13.44;100.00;101566.66;4973654;28;20375;-77
2022/05/10 02:53:41;;;;;;;37.28;22.73;;;;;;;13.42;100.00;101572.28;4986087;28;20044;-78
2022/05/10 02:56:09;;;;;;;30.08;21.52;;;;;;;13.32;100.00;101565.78;4995301;28;20441;-78
2022/05/10 02:58:44;;;;;;;34.80;21.20;;;;;;;13.27;100.00;101561.63;4979930;28;20130;-78
2022/05/10 03:01:37;;;;;;;34.55;20.75;;;;;;;13.33;100.00;101567.53;4990304;28;20030;-78
2022/05/10 03:04:05;;;;;;;42.15;22.83;;;;;;;13.17;100.00;101559.59;4970108;28;20490;-77
2022/05/10 03:06:31;;;;;;;35.28;21.83;;;;;;;13.23;100.00;101567.38;4979199;28;20038;-78
2022/05/10 03:08:58;;;;;;;36.20;22.85;;;;;;;13.15;100.00;101549.69;5010458;28;20394;-77
2022/05/10 03:11:25;;;;;;;36.63;23.05;;;;;;;13.07;100.00;101558.56;4995627;28;20041;-80
2022/05/10 03:13:52;;;;;;;36.40;22.90;;;;;;;12.93;100.00;101556.88;5012143;28;20038;-78
2022/05/10 03:16:18;;;;;;;36.75;23.15;;;;;;;13.03;100.00;101554.28;4982210;28;20035;-76
2022/05/10 03:18:45;;;;;;;36.65;23.27;;;;;;;13.19;100.00;101548.47;4993802;28;20065;-77
2022/05/10 03:21:11;;;;;;;37.05;23.15;;;;;;;13.22;100.00;101553.72;4996398;28;20046;-78
2022/05/10 03:23:36;;;;;;;44.08;24.08;;;;;;;13.20;100.00;101539.25;4994779;28;20066;-78
2022/05/10 03:26:03;;;;;;;40.85;23.40;;;;;;;13.31;100.00;101541.13;4995547;28;20371;-79
2022/05/10 03:28:29;;;;;;;36.80;23.58;;;;;;;13.27;100.00;101540.50;4977380;28;20077;-78
2022/05/10 03:30:54;;;;;;;33.28;23.15;;;;;;;13.15;100.00;101547.84;4990067;28;20352;-78
2022/05/10 03:33:20;;;;;;;36.60;22.40;;;;;;;13.17;100.00;101537.59;4985625;28;20039;-79
2022/05/10 03:35:46;;;;;;;38.38;23.60;;;;;;;13.26;100.00;101537.88;4994512;28;20038;-78
2022/05/10 03:38:12;;;;;;;36.85;23.17;;;;;;;13.28;100.00;101536.75;4975535;28;20054;-78
2022/05/10 03:40:38;;;;;;;34.58;23.42;;;;;;;13.34;100.00;101536.28;4994059;28;20039;-78
2022/05/10 03:43:07;;;;;;;35.13;23.33;;;;;;;13.36;100.00;101541.66;4996936;28;20113;-79
2022/05/10 03:45:32;;;;;;;39.40;24.52;;;;;;;13.40;100.00;101537.66;4991402;28;20034;-78
2022/05/10 03:47:58;;;;;;;35.33;23.60;;;;;;;13.38;100.00;101534.16;4994458;28;20048;-78
2022/05/10 03:50:24;;;;;;;43.53;24.88;;;;;;;13.46;100.00;101539.91;4974810;28;20058;-77
2022/05/10 03:52:50;;;;;;;46.47;26.48;;;;;;;13.47;100.00;101535.31;4992294;28;20030;-76
2022/05/10 03:55:22;;;;;;;37.88;26.25;;;;;;;13.57;100.00;101533.56;4961543;28;20105;-78
2022/05/10 03:57:48;;;;;;;46.42;26.20;;;;;;;13.64;100.00;101528.41;4974898;28;20034;-78
2022/05/10 04:00:20;;;;;;;41.40;26.27;;;;;;;13.64;100.00;101531.19;5014029;28;20042;-78
2022/05/10 04:02:46;;;;;;;37.05;26.27;;;;;;;13.68;100.00;101524.44;5013850;28;20085;-78
2022/05/10 04:05:13;;;;;;;37.55;25.48;;;;;;;13.73;100.00;101535.94;4979689;28;20030;-78
2022/05/10 04:07:39;;;;;;;34.05;25.20;;;;;;;13.67;100.00;101514.41;4992981;28;20042;-78
2022/05/10 04:10:06;;;;;;;42.15;25.30;;;;;;;13.76;100.00;101525.56;4974471;28;20035;-77
2022/05/10 04:12:32;;;;;;;40.53;25.85;;;;;;;13.78;100.00;101528.19;4994627;28;20116;-77
2022/05/10 04:14:57;;;;;;;37.72;25.52;;;;;;;13.77;100.00;101526.41;4980701;28;20470;-78
2022/05/10 04:17:23;;;;;;;41.92;26.85;;;;;;;13.74;100.00;101526.66;4970378;28;20358;-78
2022/05/10 04:19:49;;;;;;;36.33;25.25;;;;;;;13.76;100.00;101531.06;4982317;28;20042;-78
2022/05/10 04:22:16;;;;;;;36.67;24.55;;;;;;;13.84;100.00;101533.19;4964142;28;20058;-79
2022/05/10 04:24:41;;;;;;;45.95;24.85;;;;;;;13.87;100.00;101521.94;4993233;28;20031;-77
2022/05/10 04:27:07;;;;;;;30.30;22.75;;;;;;;13.95;100.00;101524.03;4972814;28;20117;-78
2022/05/10 04:29:33;;;;;;;33.35;23.90;;;;;;;14.00;100.00;101524.50;4980376;28;20038;-77
2022/05/10 04:31:58;;;;;;;37.45;23.75;;;;;;;14.03;100.00;101527.00;5014470;28;20117;-78
2022/05/10 04:34:23;;;;;;;46.28;23.55;;;;;;;14.09;100.00;101517.38;5015476;28;20074;-78
2022/05/10 04:36:49;;;;;;;36.25;23.88;;;;;;;14.15;100.00;101520.50;4995042;28;20109;-78
2022/05/10 04:39:14;;;;;;;33.80;23.02;;;;;;;14.18;100.00;101508.34;4972696;28;20050;-81
2022/05/10 04:41:48;;;;;;;29.08;22.70;;;;;;;14.26;100.00;101524.22;4979343;28;20035;-78
2022/05/10 04:44:13;;;;;;;32.53;22.20;;;;;;;14.24;100.00;101521.59;4988827;28;20068;-79
2022/05/10 04:46:41;;;;;;;33.63;22.35;;;;;;;14.31;100.00;101519.19;4994348;28;20515;-79
2022/05/10 04:49:09;;;;;;;32.92;22.23;;;;;;;14.31;100.00;101516.44;4988790;28;20027;-77
2022/05/10 04:51:35;;;;;;;39.53;22.65;;;;;;;14.36;100.00;101511.41;4994294;28;20030;-78
2022/05/10 04:54:02;;;;;;;35.28;22.10;;;;;;;14.49;100.00;101517.66;5013729;28;20035;-78
2022/05/10 04:56:27;;;;;;;28.02;21.02;;;;;;;14.48;100.00;101515.03;4995352;28;20046;-78
2022/05/10 04:58:54;;;;;;;29.85;21.60;;;;;;;14.51;100.00;101515.63;4970531;28;20397;-76
2022/05/10 05:01:22;;;;;;;31.00;22.55;;;;;;;14.60;100.00;101519.50;4992401;28;20034;-78
2022/05/10 05:03:49;;;;;;;32.20;21.52;;;;;;;14.64;100.00;101514.59;4992291;28;20090;-77
2022/05/10 05:06:18;;;;;;;30.98;20.63;;;;;;;14.67;100.00;101514.34;5011358;28;20053;-79
2022/05/10 05:08:43;;;;;;;41.47;21.30;;;;;;;14.80;100.00;101519.69;4995195;28;20039;-77
2022/05/10 05:11:10;;;;;;;30.48;20.95;;;;;;;14.85;100.00;101518.25;4994527;28;20033;-77
2022/05/10 05:13:36;;;;;;;33.88;21.40;;;;;;;14.92;100.00;101507.59;4995540;28;20030;-77
2022/05/10 05:16:02;;;;;;;28.30;21.25;;;;;;;15.05;100.00;101518.41;4994211;28;20026;-77
2022/05/10 05:18:28;;;;;;;33.50;20.88;;;;;;;15.12;100.00;101514.13;4996252;28;20069;-78
2022/05/10 05:20:54;;;;;;;30.92;21.55;;;;;;;15.22;100.00;101519.69;4960582;28;20073;-78
2022/05/10 05:23:21;;;;;;;36.08;21.80;;;;;;;15.30;100.00;101522.66;4985127;28;20369;-77
2022/05/10 05:25:47;;;;;;;27.63;20.13;;;;;;;15.39;100.00;101520.94;4995562;28;20034;-78
2022/05/10 05:28:15;;;;;;;33.58;20.85;;;;;;;15.53;100.00;101517.84;4994987;28;20049;-78
2022/05/10 05:30:43;;;;;;;34.72;20.63;;;;;;;15.58;100.00;101515.53;4963733;28;20034;-78
2022/05/10 05:33:09;;;;;;;31.35;19.05;;;;;;;15.70;100.00;101515.44;4997480;28;20041;-77
2022/05/10 05:35:36;;;;;;;33.47;20.15;;;;;;;15.81;100.00;101518.13;4997316;28;20058;-78
2022/05/10 05:38:03;;;;;;;30.80;20.13;;;;;;;15.89;100.00;101517.41;4995698;28;20394;-77
2022/05/10 05:40:28;;;;;;;31.55;19.55;;;;;;;15.99;100.00;101513.69;4996413;28;20534;-77
2022/05/10 05:42:54;;;;;;;33.55;19.60;;;;;;;16.06;100.00;101524.19;4995936;28;20038;-78
2022/05/10 05:45:22;;;;;;;34.03;20.40;;;;;;;16.29;100.00;101513.75;4998299;28;20072;-78
2022/05/10 05:47:48;;;;;;;39.20;19.90;;;;;;;16.30;100.00;101513.63;4999285;28;20037;-78
2022/05/10 05:50:15;;;;;;;38.63;19.63;;;;;;;16.21;100.00;101514.47;4997590;28;20466;-78
2022/05/10 05:52:41;;;;;;;27.48;19.17;;;;;;;16.28;100.00;101510.13;4979194;28;20469;-78
2022/05/10 05:55:08;;;;;;;32.55;19.05;;;;;;;16.26;100.00;101512.16;4995376;28;20387;-77
2022/05/10 05:57:35;;;;;;;32.20;19.40;;;;;;;16.34;100.00;101511.44;4994546;28;20049;-78
2022/05/10 06:00:01;;;;;;;34.33;20.88;;;;;;;16.34;100.00;101506.78;4970709;28;20039;-78
2022/05/10 06:02:27;;;;;;;34.55;20.52;;;;;;;16.40;100.00;101507.22;4981427;28;20397;-78
2022/05/10 06:04:53;;;;;;;26.42;19.25;;;;;;;16.33;100.00;101507.81;4995961;28;20041;-78
2022/05/10 06:07:20;;;;;;;29.90;19.50;;;;;;;16.41;100.00;101507.06;4997226;28;20105;-78
2022/05/10 06:09:50;;;;;;;26.65;18.70;;;;;;;16.52;100.00;101511.59;4986821;28;20046;-78
2022/05/10 06:12:19;;;;;;;22.65;18.50;;;;;;;16.52;100.00;101509.72;4997089;28;20045;-79
2022/05/10 06:14:45;;;;;;;26.83;18.55;;;;;;;16.70;100.00;101509.84;4995530;28;20053;-78
2022/05/10 06:17:12;;;;;;;25.55;19.10;;;;;;;16.83;100.00;101511.47;4991483;28;20089;-78
2022/05/10 06:19:39;;;;;;;28.05;18.95;;;;;;;16.90;100.00;101499.72;4982164;28;20093;-77
2022/05/10 06:22:07;;;;;;;29.92;18.65;;;;;;;17.06;100.00;101506.53;4989181;28;20114;-77
2022/05/10 06:24:33;;;;;;;26.00;18.73;;;;;;;16.99;100.00;101508.16;5006340;28;20039;-77
2022/05/10 06:26:59;;;;;;;31.15;19.15;;;;;;;17.06;100.00;101507.38;4948802;28;20154;-77
2022/05/10 06:29:24;;;;;;;25.30;18.50;;;;;;;17.12;100.00;101499.50;4970720;28;20062;-77
2022/05/10 06:31:50;;;;;;;29.00;17.90;;;;;;;17.13;100.00;101498.50;4971319;28;20048;-77
2022/05/10 06:34:16;;;;;;;28.02;18.02;;;;;;;17.17;100.00;101494.44;4990570;28;20113;-78
2022/05/10 06:36:42;;;;;;;20.80;17.08;;;;;;;17.21;100.00;101487.56;4975900;28;20058;-79
2022/05/10 06:39:11;;;;;;;28.77;17.05;;;;;;;17.37;100.00;101482.28;4980151;28;20054;-79
2022/05/10 06:41:37;;;;;;;27.88;17.75;;;;;;;17.45;100.00;101478.75;4989814;28;20030;-79
2022/05/10 06:44:03;;;;;;;26.88;17.77;;;;;;;17.51;100.00;101478.16;4964683;28;20164;-78
2022/05/10 06:46:32;;;;;;;27.10;17.35;;;;;;;17.58;100.00;101478.41;4992462;28;20475;-78
2022/05/10 06:48:58;;;;;;;24.17;16.23;;;;;;;17.63;100.00;101473.28;4993234;28;20495;-80
2022/05/10 06:51:25;;;;;;;26.20;17.35;;;;;;;17.73;100.00;101471.34;4992950;28;20030;-77
2022/05/10 06:53:51;;;;;;;25.13;15.93;;;;;;;17.77;100.00;101472.78;4995272;28;20038;-77
2022/05/10 06:56:17;;;;;;;23.00;16.58;;;;;;;17.81;100.00;101473.34;5010286;28;20034;-77
2022/05/10 06:58:42;;;;;;;23.63;15.80;;;;;;;17.99;100.00;101467.88;5007587;28;20038;-78
2022/05/10 07:01:13;;;;;;;24.42;15.50;;;;;;;18.16;100.00;101471.72;4994043;28;20470;-77
2022/05/10 07:03:44;;;;;;;27.83;16.55;;;;;;;18.25;100.00;101470.78;5009484;28;20030;-78
2022/05/10 07:06:11;;;;;;;27.75;17.85;;;;;;;18.35;100.00;101465.16;4985158;28;20027;-77
2022/05/10 07:08:37;;;;;;;25.73;15.80;;;;;;;18.42;100.00;101469.03;4987040;28;20049;-78
2022/05/10 07:11:05;;;;;;;37.85;15.52;;;;;;;18.61;100.00;101465.25;4996113;28;20065;-79
2022/05/10 07:13:31;;;;;;;24.75;15.50;;;;;;;18.70;100.00;101471.72;4942985;28;20039;-77
2022/05/10 07:15:57;;;;;;;24.88;16.15;;;;;;;18.70;100.00;101464.28;4987636;28;20068;-77
2022/05/10 07:18:23;;;;;;;21.77;14.98;;;;;;;18.75;100.00;101461.03;4993585;28;20062;-77
2022/05/10 07:20:52;;;;;;;24.27;14.93;;;;;;;18.90;100.00;101466.91;4993423;28;20050;-77
2022/05/10 07:23:23;;;;;;;28.35;14.82;;;;;;;19.03;100.00;101463.72;4992610;28;20077;-78
2022/05/10 07:25:50;;;;;;;26.80;14.82;;;;;;;19.11;99.78;101452.66;4993302;28;20034;-77
2022/05/10 07:28:16;;;;;;;19.98;14.70;;;;;;;19.22;100.00;101460.72;4998140;28;20429;-78
2022/05/10 07:30:42;;;;;;;23.95;14.32;;;;;;;19.25;98.56;101459.50;4990607;28;20089;-78
2022/05/10 07:36:33;;;;;;;24.98;14.30;;;;;;;19.77;95.11;101462.25;4994870;28;20042;-78
2022/05/10 07:39:10;;;;;;;22.92;14.13;;;;;;;19.80;93.93;101459.13;4978207;28;20042;-78
2022/05/10 07:41:38;;;;;;;17.80;12.80;;;;;;;19.88;95.37;101457.44;4988601;28;20030;-78
2022/05/10 07:44:07;;;;;;;27.52;13.75;;;;;;;19.83;93.72;101455.16;4965701;28;20039;-77
2022/05/10 07:46:33;;;;;;;22.92;13.25;;;;;;;20.10;93.12;101455.94;4995657;28;20129;-77
2022/05/10 07:48:59;;;;;;;29.90;13.05;;;;;;;20.19;91.94;101454.94;4992666;28;20038;-78
2022/05/10 07:51:24;;;;;;;20.67;13.70;;;;;;;20.19;91.56;101452.16;4994301;28;20038;-78
2022/05/10 07:53:51;;;;;;;17.38;12.75;;;;;;;20.37;89.34;101458.44;4993737;28;20489;-77
2022/05/10 07:56:16;;;;;;;18.65;12.70;;;;;;;20.62;88.29;101450.13;4996132;28;20034;-78
2022/05/10 07:58:42;;;;;;;24.40;12.07;;;;;;;20.86;86.73;101443.72;4993521;28;20477;-78
2022/05/10 08:01:07;;;;;;;24.65;12.23;;;;;;;21.01;85.12;101445.81;4946914;28;20037;-77
2022/05/10 08:03:34;;;;;;;21.98;11.35;;;;;;;20.84;85.39;101442.16;5007899;28;20046;-77
2022/05/10 08:06:00;;;;;;;26.67;11.07;;;;;;;20.78;85.51;101442.88;4993960;28;20125;-77
2022/05/10 08:08:29;;;;;;;14.65;10.88;;;;;;;20.83;84.26;101438.50;4991792;28;20035;-76
2022/05/10 08:10:55;;;;;;;20.75;10.88;;;;;;;20.77;84.96;101444.75;4994560;28;20517;-77
2022/05/10 08:13:24;;;;;;;20.10;10.60;;;;;;;20.94;83.46;101440.06;4992853;28;20035;-77
2022/05/10 08:15:51;;;;;;;19.48;9.82;;;;;;;20.88;82.49;101426.84;4992250;28;20086;-77
2022/05/10 08:18:18;;;;;;;16.80;9.50;;;;;;;20.92;82.69;101433.78;4984635;28;20038;-77
2022/05/10 08:20:44;;;;;;;17.80;9.98;;;;;;;21.00;82.52;101433.78;5009656;28;20513;-77
2022/05/10 08:23:11;;;;;;;26.48;8.75;;;;;;;21.03;82.62;101421.44;4994056;28;20490;-77
2022/05/10 08:25:37;;;;;;;21.55;9.82;;;;;;;21.03;81.61;101429.78;4952857;28;20062;-77
2022/05/10 08:28:03;;;;;;;20.38;9.93;;;;;;;21.08;82.34;101433.78;4993179;28;20069;-77
2022/05/10 08:30:29;;;;;;;16.08;9.15;;;;;;;21.16;81.14;101430.09;4995753;28;20066;-77
2022/05/10 08:32:55;;;;;;;16.83;8.80;;;;;;;21.12;81.88;101423.16;4994150;28;20080;-77
2022/05/10 08:35:20;;;;;;;17.25;9.68;;;;;;;21.18;82.61;101421.56;5010155;28;20506;-77
2022/05/10 08:37:46;;;;;;;17.52;8.07;;;;;;;21.30;81.71;101431.31;4991060;28;20065;-76
2022/05/10 08:40:55;;;;;;;24.33;9.27;;;;;;;21.15;80.36;101427.50;4994846;28;20054;-77
2022/05/10 08:43:24;;;;;;;15.52;8.93;;;;;;;21.21;79.69;101419.31;4990740;28;20050;-77
2022/05/10 08:45:51;;;;;;;21.80;8.52;;;;;;;21.42;79.42;101421.50;4999253;28;20030;-77
2022/05/10 08:48:16;;;;;;;25.38;8.35;;;;;;;21.61;79.45;101422.16;4994627;28;20026;-78
2022/05/10 08:50:46;;;;;;;25.30;8.93;;;;;;;21.74;77.69;101418.81;4993403;28;20308;-78
2022/05/10 08:53:12;;;;;;;19.50;9.50;;;;;;;21.96;75.87;101425.50;4999621;28;20101;-76
2022/05/10 08:55:46;;;;;;;18.63;8.15;;;;;;;22.12;75.33;101419.81;4971185;28;20122;-77
2022/05/10 08:58:43;;;;;;;23.15;7.82;;;;;;;22.31;74.65;101417.63;4987688;28;20117;-77
2022/05/10 09:01:16;;;;;;;20.25;8.30;;;;;;;22.55;72.30;101411.00;4983862;28;20089;-77
2022/05/10 09:03:45;;;;;;;21.52;8.60;;;;;;;22.68;72.77;101402.88;4986912;28;20035;-77
2022/05/10 09:06:40;;;;;;;24.30;7.97;;;;;;;22.50;74.20;101405.13;5006882;28;20026;-77
2022/05/10 09:09:08;;;;;;;24.65;8.90;;;;;;;22.20;73.35;101399.34;4997731;28;20038;-77
2022/05/10 09:11:48;;;;;;;17.70;7.55;;;;;;;21.83;75.70;101396.28;4996372;28;20041;-77
2022/05/10 09:14:14;;;;;;;19.90;8.00;;;;;;;21.82;74.75;101393.66;4996700;28;20034;-78
2022/05/10 09:16:40;;;;;;;25.60;7.57;;;;;;;21.66;74.74;101392.72;4960627;28;20066;-77
2022/05/10 09:19:11;;;;;;;18.65;7.47;;;;;;;21.49;75.54;101391.03;5015115;28;20038;-80
2022/05/10 09:21:49;;;;;;;21.95;7.65;;;;;;;21.58;76.27;101391.88;5015211;28;20037;-80
2022/05/10 09:24:20;;;;;;;19.90;7.53;;;;;;;21.57;74.93;101390.16;4981039;28;20038;-79
2022/05/10 09:26:48;;;;;;;24.30;8.38;;;;;;;21.64;75.40;101385.56;5011970;28;20035;-80
2022/05/10 09:29:38;;;;;;;20.52;8.35;;;;;;;21.75;76.09;101382.38;4983522;28;20058;-77
2022/05/10 09:35:13;;;;;;;28.38;7.95;;;;;;;22.02;74.65;101380.13;4996540;28;20130;-79
2022/05/10 09:38:03;;;;;;;22.77;7.28;;;;;;;22.29;72.70;101381.56;4997037;28;20038;-77
2022/05/10 09:40:40;;;;;;;17.75;7.15;;;;;;;22.53;72.87;101387.97;4998022;28;20042;-78
2022/05/10 09:43:17;;;;;;;19.75;7.88;;;;;;;22.61;72.62;101378.69;4995303;28;20482;-77
2022/05/10 09:45:45;;;;;;;16.58;7.80;;;;;;;22.65;72.70;101380.06;5001613;28;20022;-78
2022/05/10 09:48:15;;;;;;;23.10;7.88;;;;;;;22.95;71.01;101378.16;5009599;28;20038;-78
2022/05/10 09:50:45;;;;;;;10.48;7.10;;;;;;;23.25;69.28;101378.22;4981505;28;20489;-78
2022/05/10 09:53:22;;;;;;;14.77;6.50;;;;;;;23.69;67.27;101371.72;4996553;28;20135;-78
2022/05/10 09:56:24;;;;;;;14.60;6.53;;;;;;;24.12;64.82;101370.97;4997163;28;20022;-78
2022/05/10 09:59:25;;;;;;;15.40;6.40;;;;;;;24.49;62.63;101372.63;4995914;28;20035;-76
2022/05/10 10:01:56;;;;;;;13.27;5.88;;;;;;;24.58;63.63;101363.06;4990921;28;20035;-77
2022/05/10 10:04:32;;;;;;;15.52;5.50;;;;;;;24.55;63.28;101363.47;4995506;28;20066;-77
2022/05/10 10:07:06;;;;;;;11.15;5.72;;;;;;;25.00;60.01;101367.91;4988371;28;20047;-77
2022/05/10 10:09:37;;;;;;;14.80;6.40;;;;;;;24.56;59.73;101362.41;4978245;28;20030;-77
2022/05/10 10:12:04;;;;;;;9.20;5.43;;;;;;;25.00;59.44;101362.31;4988499;28;20037;-77
2022/05/10 10:14:41;;;;;;;17.33;5.93;;;;;;;24.64;59.46;101349.31;4996738;28;20034;-76
2022/05/10 10:17:18;;;;;;;11.43;5.35;;;;;;;24.63;59.23;101354.06;4998081;28;20038;-78
2022/05/10 10:19:49;;;;;;;11.90;5.68;;;;;;;24.93;59.18;101348.25;4978580;28;20061;-77
2022/05/10 10:22:20;;;;;;;17.73;5.47;;;;;;;25.22;58.73;101347.16;4987860;28;20077;-78
2022/05/10 10:24:53;;;;;;;11.98;5.72;;;;;;;24.99;57.26;101339.03;4996467;28;20117;-77
2022/05/10 10:27:47;;;;;;;13.60;5.60;;;;;;;25.46;56.65;101339.31;4997080;28;20532;-79
2022/05/10 10:30:22;;;;;;;13.10;5.50;;;;;;;25.80;55.71;101335.59;4995137;28;20104;-79
2022/05/10 10:32:58;;;;;;;24.13;5.88;;;;;;;25.72;55.98;101327.34;4995031;28;20351;-78
2022/05/10 10:35:47;;;;;;;9.07;5.55;;;;;;;25.89;55.09;101333.44;4997709;28;20037;-79
2022/05/10 10:38:20;;;;;;;15.40;5.10;;;;;;;26.02;54.55;101332.66;4995257;28;20037;-78
2022/05/10 10:41:01;;;;;;;12.60;5.03;;;;;;;26.05;53.25;101326.59;4996675;28;20026;-78
2022/05/10 10:43:26;;;;;;;15.10;5.07;;;;;;;26.19;53.19;101333.13;4988754;28;20088;-78
2022/05/10 10:46:00;;;;;;;25.70;5.03;;;;;;;25.88;53.65;101330.88;4995450;28;20030;-79
2022/05/10 10:48:29;;;;;;;13.43;5.53;;;;;;;26.46;51.61;101321.91;4994622;28;20026;-78
2022/05/10 10:50:56;;;;;;;15.80;5.60;;;;;;;26.39;50.92;101325.56;4994022;28;20466;-79
2022/05/10 10:53:25;;;;;;;16.77;5.15;;;;;;;26.34;50.82;101325.38;4992003;28;20026;-78
2022/05/10 10:56:13;;;;;;;13.60;6.07;;;;;;;26.52;50.87;101318.25;5008875;28;20058;-78
2022/05/10 10:59:10;;;;;;;26.33;6.03;;;;;;;26.31;51.66;101313.69;4992812;28;20109;-79
2022/05/10 11:01:49;;;;;;;12.82;5.22;;;;;;;26.81;49.96;101310.47;4987973;28;20523;-80
2022/05/10 11:04:29;;;;;;;10.75;5.82;;;;;;;26.75;49.57;101315.03;4989543;28;20038;-77
2022/05/10 11:06:55;;;;;;;16.45;5.60;;;;;;;26.61;50.83;101314.13;5014013;28;20030;-77
2022/05/10 11:09:46;;;;;;;13.48;5.32;;;;;;;26.98;49.73;101303.31;4997291;28;20053;-78
2022/05/10 11:12:41;;;;;;;8.45;5.70;;;;;;;27.37;49.79;101289.34;4990161;28;20093;-79
2022/05/10 11:15:35;;;;;;;22.02;5.45;;;;;;;27.56;48.35;101285.59;4992937;28;20483;-79
2022/05/10 11:18:15;;;;;;;14.77;5.80;;;;;;;26.69;50.02;101290.59;4980330;28;20130;-80
2022/05/10 11:21:07;;;;;;;18.05;6.68;;;;;;;26.72;50.68;101288.22;4998884;28;20049;-79
2022/05/10 11:23:44;;;;;;;13.85;5.82;;;;;;;26.75;49.65;101290.59;4994279;28;20054;-78
2022/05/10 11:26:45;;;;;;;25.00;6.70;;;;;;;26.26;50.21;101285.41;4979889;28;20034;-78
2022/05/10 11:29:50;;;;;;;27.90;5.75;;;;;;;26.21;49.24;101275.66;4967633;28;20479;-79
2022/05/10 11:33:06;;;;;;;23.23;5.68;;;;;;;26.39;48.31;101265.75;4954704;28;20070;-78
2022/05/10 11:36:01;;;;;;;10.52;5.15;;;;;;;25.90;50.14;101261.38;4923424;29;20508;-79